createdAt,value
2018-04-18T00:01:24.169Z,99.90
2018-04-18T00:03:52.388Z,99.90
2018-04-18T00:06:19.851Z,99.90
2018-04-18T00:08:47.302Z,99.90
2018-04-18T00:11:14.765Z,99.90
2018-04-18T00:13:42.229Z,99.90
2018-04-18T00:16:09.674Z,99.90
2018-04-18T00:18:37.134Z,99.90
2018-04-18T00:21:04.579Z,99.90
2018-04-18T00:23:32.045Z,99.90
2018-04-18T00:25:59.485Z,99.90
2018-04-18T00:28:26.947Z,99.90
2018-04-18T00:30:54.455Z,99.90
2018-04-18T00:33:21.901Z,99.90
2018-04-18T00:35:50.136Z,99.90
2018-04-18T00:38:17.589Z,99.90
2018-04-18T00:40:45.039Z,99.90
2018-04-18T00:43:12.507Z,99.90
2018-04-18T00:45:39.971Z,99.90
2018-04-18T00:48:07.425Z,99.90
2018-04-18T00:50:34.892Z,99.90
2018-04-18T00:53:02.347Z,99.90
2018-04-18T00:55:29.805Z,99.90
2018-04-18T00:57:57.260Z,99.90
2018-04-18T01:00:24.713Z,99.90
2018-04-18T01:02:52.166Z,99.90
2018-04-18T01:05:19.619Z,99.90
2018-04-18T01:07:47.067Z,99.90
2018-04-18T01:10:15.550Z,99.90
2018-04-18T01:12:43.013Z,99.90
2018-04-18T01:15:10.461Z,99.90
2018-04-18T01:17:37.914Z,99.90
2018-04-18T01:20:05.381Z,99.90
2018-04-18T01:22:32.841Z,99.90
2018-04-18T01:25:01.067Z,99.90
2018-04-18T01:27:28.554Z,99.90
2018-04-18T01:29:55.991Z,99.90
2018-04-18T01:32:24.214Z,99.90
2018-04-18T01:34:51.684Z,99.90
2018-04-18T01:37:19.146Z,99.90
2018-04-18T01:39:46.614Z,99.90
2018-04-18T01:42:14.066Z,99.90
2018-04-18T01:44:41.523Z,99.90
2018-04-18T01:47:08.966Z,99.90
2018-04-18T01:49:36.516Z,99.90
2018-04-18T01:52:03.969Z,99.90
2018-04-18T01:54:31.424Z,99.90
2018-04-18T01:56:59.682Z,99.90
2018-04-18T01:59:27.127Z,99.90
2018-04-18T02:01:55.338Z,99.90
2018-04-18T02:04:22.797Z,99.90
2018-04-18T02:06:50.238Z,99.90
2018-04-18T02:09:17.699Z,99.90
2018-04-18T02:11:45.158Z,99.90
2018-04-18T02:14:12.610Z,99.90
2018-04-18T02:16:40.055Z,99.90
2018-04-18T02:19:07.631Z,99.90
2018-04-18T02:21:35.168Z,99.90
2018-04-18T02:24:02.627Z,99.90
2018-04-18T02:26:30.068Z,99.90
2018-04-18T02:28:58.281Z,99.90
2018-04-18T02:31:25.736Z,99.90
2018-04-18T02:33:53.201Z,99.90
2018-04-18T02:36:20.656Z,99.90
2018-04-18T02:38:48.109Z,99.90
2018-04-18T02:41:15.553Z,99.90
2018-04-18T02:43:43.007Z,99.90
2018-04-18T02:46:10.455Z,99.90
2018-04-18T02:48:38.682Z,99.90
2018-04-18T02:51:06.179Z,99.90
2018-04-18T02:53:34.411Z,99.90
2018-04-18T02:56:01.851Z,99.90
2018-04-18T02:58:29.301Z,99.90
2018-04-18T03:00:57.519Z,99.90
2018-04-18T03:03:24.973Z,99.90
2018-04-18T03:05:52.438Z,99.90
2018-04-18T03:08:19.886Z,99.90
2018-04-18T03:10:47.339Z,99.90
2018-04-18T03:13:14.792Z,99.90
2018-04-18T03:15:42.244Z,99.90
2018-04-18T03:18:09.951Z,99.90
2018-04-18T03:20:41.808Z,99.90
2018-04-18T03:23:10.087Z,99.90
2018-04-18T03:25:38.495Z,99.90
2018-04-18T03:28:06.955Z,99.90
2018-04-18T03:30:35.155Z,99.90
2018-04-18T03:33:02.692Z,99.90
2018-04-18T03:35:30.149Z,99.90
2018-04-18T03:37:57.601Z,99.90
2018-04-18T03:40:25.828Z,99.90
2018-04-18T03:42:53.364Z,99.90
2018-04-18T03:45:20.806Z,99.90
2018-04-18T03:47:48.252Z,99.90
2018-04-18T03:50:15.710Z,99.90
2018-04-18T03:52:43.173Z,99.90
2018-04-18T03:55:10.648Z,99.90
2018-04-18T03:57:38.082Z,99.90
2018-04-18T04:00:05.544Z,99.90
2018-04-18T04:02:32.992Z,99.90
2018-04-18T04:05:02.202Z,99.90
2018-04-18T04:07:29.648Z,99.90
2018-04-18T04:09:58.859Z,99.90
2018-04-18T04:12:26.295Z,99.90
2018-04-18T04:14:54.513Z,99.90
2018-04-18T04:17:33.902Z,99.90
2018-04-18T04:20:13.332Z,99.90
2018-04-18T04:22:52.718Z,99.90
2018-04-18T04:25:20.169Z,99.90
2018-04-18T04:27:47.616Z,99.90
2018-04-18T04:30:15.077Z,99.90
2018-04-18T04:32:42.527Z,99.90
2018-04-18T04:35:09.975Z,99.90
2018-04-18T04:37:38.192Z,99.90
2018-04-18T04:40:05.663Z,99.90
2018-04-18T04:42:33.108Z,99.90
2018-04-18T04:45:00.593Z,99.90
2018-04-18T04:47:28.178Z,99.90
2018-04-18T04:49:55.650Z,99.90
2018-04-18T04:52:23.097Z,99.90
2018-04-18T04:54:51.310Z,99.90
2018-04-18T04:57:19.093Z,99.90
2018-04-18T04:59:47.359Z,99.90
2018-04-18T05:02:14.811Z,99.90
2018-04-18T05:04:42.258Z,99.90
2018-04-18T05:07:09.713Z,99.90
2018-04-18T05:09:37.160Z,99.90
2018-04-18T05:12:04.619Z,99.90
2018-04-18T05:14:32.060Z,99.90
2018-04-18T05:17:00.284Z,99.90
2018-04-18T05:19:27.757Z,99.90
2018-04-18T05:21:57.225Z,99.90
2018-04-18T05:24:24.681Z,99.90
2018-04-18T05:26:52.143Z,99.90
2018-04-18T05:29:21.639Z,99.90
2018-04-18T05:31:51.137Z,99.90
2018-04-18T05:34:18.604Z,99.90
2018-04-18T05:36:46.051Z,99.90
2018-04-18T05:39:13.509Z,99.90
2018-04-18T05:41:40.999Z,99.90
2018-04-18T05:44:08.457Z,99.90
2018-04-18T05:46:35.899Z,99.90
2018-04-18T05:49:03.357Z,99.90
2018-04-18T05:51:30.810Z,99.90
2018-04-18T05:53:58.257Z,99.90
2018-04-18T05:56:25.707Z,99.90
2018-04-18T05:58:53.164Z,99.90
2018-04-18T06:01:20.632Z,99.90
2018-04-18T06:03:48.096Z,99.90
2018-04-18T06:06:15.585Z,99.90
2018-04-18T06:08:43.011Z,99.90
2018-04-18T06:11:10.497Z,99.90
2018-04-18T06:13:37.949Z,99.90
2018-04-18T06:16:05.405Z,99.90
2018-04-18T06:18:32.852Z,99.90
2018-04-18T06:21:00.579Z,99.90
2018-04-18T06:23:28.040Z,99.90
2018-04-18T06:25:55.498Z,99.90
2018-04-18T06:28:22.951Z,99.90
2018-04-18T06:30:51.183Z,99.90
2018-04-18T06:33:18.629Z,99.90
2018-04-18T06:35:46.075Z,99.90
2018-04-18T06:38:13.550Z,99.90
2018-04-18T06:40:41.002Z,99.90
2018-04-18T06:43:08.448Z,99.90
2018-04-18T06:45:35.901Z,99.90
2018-04-18T06:48:03.354Z,99.90
2018-04-18T06:50:30.807Z,99.90
2018-04-18T06:52:58.269Z,99.90
2018-04-18T06:55:25.723Z,99.90
2018-04-18T06:57:53.185Z,99.90
2018-04-18T07:00:20.623Z,99.90
2018-04-18T07:02:48.098Z,99.90
2018-04-18T07:05:15.552Z,99.90
2018-04-18T07:07:42.995Z,99.90
2018-04-18T07:10:10.439Z,99.90
2018-04-18T07:12:38.674Z,99.90
2018-04-18T07:15:06.120Z,99.90
2018-04-18T07:17:33.663Z,99.90
2018-04-18T07:20:01.112Z,99.90
2018-04-18T07:22:28.553Z,99.90
2018-04-18T07:24:56.012Z,99.90
2018-04-18T07:27:23.475Z,99.90
2018-04-18T07:29:50.920Z,99.90
2018-04-18T07:32:19.131Z,99.80
2018-04-18T07:34:46.584Z,99.80
2018-04-18T07:37:14.052Z,99.90
2018-04-18T07:39:41.491Z,99.50
2018-04-18T07:42:08.937Z,98.80
2018-04-18T07:44:36.394Z,98.70
2018-04-18T07:47:04.597Z,98.00
2018-04-18T07:49:32.076Z,98.00
2018-04-18T07:51:59.506Z,97.70
2018-04-18T07:54:26.952Z,97.20
2018-04-18T07:56:54.406Z,96.30
2018-04-18T07:59:21.865Z,96.00
2018-04-18T08:01:50.313Z,95.40
2018-04-18T08:04:18.537Z,94.90
2018-04-18T08:06:46.000Z,94.90
2018-04-18T08:09:13.448Z,93.70
2018-04-18T08:11:40.922Z,94.00
2018-04-18T08:14:08.372Z,93.50
2018-04-18T08:16:35.835Z,92.80
2018-04-18T08:19:13.848Z,94.20
2018-04-18T08:21:41.319Z,92.80
2018-04-18T08:24:08.762Z,91.90
2018-04-18T08:26:36.213Z,91.50
2018-04-18T08:29:03.716Z,92.30
2018-04-18T08:31:31.929Z,90.20
2018-04-18T08:33:59.415Z,90.20
2018-04-18T08:36:27.325Z,87.20
2018-04-18T08:38:54.765Z,85.40
2018-04-18T08:41:24.109Z,84.80
2018-04-18T08:43:51.822Z,84.70
2018-04-18T08:46:19.315Z,84.20
2018-04-18T08:48:46.775Z,81.20
2018-04-18T08:51:14.250Z,81.60
2018-04-18T08:53:41.692Z,78.20
2018-04-18T08:56:09.162Z,76.10
2018-04-18T08:58:36.619Z,75.30
2018-04-18T09:01:04.056Z,76.60
2018-04-18T09:03:31.501Z,75.40
2018-04-18T09:05:59.727Z,75.50
2018-04-18T09:08:28.257Z,75.40
2018-04-18T09:10:56.481Z,72.80
2018-04-18T09:13:23.946Z,72.80
2018-04-18T09:15:51.412Z,72.50
2018-04-18T09:18:18.864Z,70.40
2018-04-18T09:20:46.301Z,72.00
2018-04-18T09:23:13.821Z,69.40
2018-04-18T09:25:42.030Z,71.40
2018-04-18T09:28:09.632Z,71.40
2018-04-18T09:30:37.084Z,68.00
2018-04-18T09:33:04.620Z,77.60
2018-04-18T09:35:32.059Z,69.80
2018-04-18T09:37:59.512Z,66.00
2018-04-18T09:40:27.035Z,71.90
2018-04-18T09:42:55.342Z,68.60
2018-04-18T09:45:22.780Z,68.00
2018-04-18T09:47:51.095Z,65.20
2018-04-18T09:50:18.540Z,65.00
2018-04-18T09:52:45.982Z,61.80
2018-04-18T09:55:13.410Z,61.80
2018-04-18T09:57:41.635Z,61.60
2018-04-18T10:00:09.143Z,61.50
2018-04-18T10:02:37.396Z,56.30
2018-04-18T10:05:07.671Z,56.30
2018-04-18T10:07:35.128Z,58.30
2018-04-18T10:10:02.563Z,55.90
2018-04-18T10:12:31.882Z,57.30
2018-04-18T10:14:59.325Z,57.50
2018-04-18T10:17:27.535Z,51.40
2018-04-18T10:19:54.977Z,51.40
2018-04-18T10:22:22.411Z,54.60
2018-04-18T10:24:50.629Z,59.30
2018-04-18T10:27:18.081Z,59.30
2018-04-18T10:29:45.531Z,50.30
2018-04-18T10:32:12.980Z,49.40
2018-04-18T10:34:40.421Z,49.10
2018-04-18T10:37:08.634Z,46.30
2018-04-18T10:39:38.104Z,46.30
2018-04-18T10:42:05.662Z,46.60
2018-04-18T10:44:33.872Z,45.60
2018-04-18T10:47:01.333Z,45.70
2018-04-18T10:49:28.786Z,45.80
2018-04-18T10:51:56.218Z,47.00
2018-04-18T10:54:23.670Z,45.60
2018-04-18T10:56:51.113Z,51.50
2018-04-18T10:59:19.405Z,49.30
2018-04-18T11:01:46.844Z,49.40
2018-04-18T11:04:15.067Z,44.90
2018-04-18T11:06:42.661Z,44.80
2018-04-18T11:09:10.120Z,41.10
2018-04-18T11:11:37.551Z,42.30
2018-04-18T11:14:05.066Z,41.60
2018-04-18T11:16:33.290Z,41.80
2018-04-18T11:19:00.735Z,41.80
2018-04-18T11:21:28.202Z,41.50
2018-04-18T11:23:55.651Z,40.00
2018-04-18T11:26:23.100Z,42.20
2018-04-18T11:28:50.543Z,41.20
2018-04-18T11:31:17.998Z,40.70
2018-04-18T11:33:45.432Z,40.90
2018-04-18T11:36:13.654Z,42.20
2018-04-18T11:38:41.101Z,41.70
2018-04-18T11:41:08.547Z,37.50
2018-04-18T11:43:35.995Z,39.60
2018-04-18T11:46:03.447Z,39.00
2018-04-18T11:48:30.894Z,38.10
2018-04-18T11:50:59.123Z,39.10
2018-04-18T11:53:26.573Z,39.10
2018-04-18T11:55:54.030Z,39.30
2018-04-18T11:58:21.475Z,39.80
2018-04-18T12:00:48.927Z,45.00
2018-04-18T12:03:16.379Z,40.00
2018-04-18T12:05:43.850Z,41.60
2018-04-18T12:08:11.322Z,40.70
2018-04-18T12:10:38.758Z,40.20
2018-04-18T12:13:06.296Z,40.90
2018-04-18T12:15:34.504Z,41.40
2018-04-18T12:18:01.957Z,41.30
2018-04-18T12:20:29.394Z,39.00
2018-04-18T12:22:56.862Z,37.10
2018-04-18T12:25:24.306Z,39.50
2018-04-18T12:27:52.541Z,40.00
2018-04-18T12:30:19.984Z,40.00
2018-04-18T12:32:47.438Z,40.00
2018-04-18T12:35:14.885Z,39.80
2018-04-18T12:37:42.538Z,41.10
2018-04-18T12:40:10.082Z,41.10
2018-04-18T12:42:37.546Z,39.40
2018-04-18T12:45:05.015Z,42.30
2018-04-18T12:47:32.469Z,40.30
2018-04-18T12:49:59.908Z,41.50
2018-04-18T12:52:27.368Z,41.70
2018-04-18T12:54:54.811Z,42.00
2018-04-18T12:57:22.253Z,43.50
2018-04-18T12:59:50.451Z,44.10
2018-04-18T13:02:17.905Z,44.10
2018-04-18T13:04:45.351Z,43.90
2018-04-18T13:07:13.580Z,43.90
2018-04-18T13:09:43.028Z,43.90
2018-04-18T13:12:11.244Z,44.80
2018-04-18T13:14:38.679Z,44.80
2018-04-18T13:17:06.142Z,44.40
2018-04-18T13:19:33.583Z,46.80
2018-04-18T13:22:01.036Z,45.30
2018-04-18T13:24:29.254Z,44.20
2018-04-18T13:26:56.708Z,44.20
2018-04-18T13:29:24.151Z,45.00
2018-04-18T13:31:51.596Z,45.50
2018-04-18T13:34:19.069Z,46.50
2018-04-18T13:36:46.601Z,46.60
2018-04-18T13:39:14.843Z,45.70
2018-04-18T13:41:42.304Z,45.70
2018-04-18T13:44:09.734Z,46.20
2018-04-18T13:46:37.199Z,46.10
2018-04-18T13:49:04.719Z,47.20
2018-04-18T13:51:35.342Z,46.30
2018-04-18T13:54:02.778Z,47.20
2018-04-18T13:56:31.071Z,46.50
2018-04-18T13:58:59.296Z,45.60
2018-04-18T14:01:26.741Z,45.60
2018-04-18T14:03:54.196Z,47.20
2018-04-18T14:06:21.647Z,45.60
2018-04-18T14:08:49.167Z,46.20
2018-04-18T14:11:17.394Z,46.40
2018-04-18T14:13:44.838Z,46.50
2018-04-18T14:16:12.288Z,47.30
2018-04-18T14:18:39.740Z,46.50
2018-04-18T14:21:07.181Z,45.70
2018-04-18T14:23:34.629Z,46.00
2018-04-18T14:26:02.377Z,45.30
2018-04-18T14:28:29.863Z,46.80
2018-04-18T14:30:57.316Z,46.40
2018-04-18T14:33:24.772Z,47.10
2018-04-18T14:35:52.982Z,46.70
2018-04-18T14:38:20.449Z,46.70
2018-04-18T14:40:47.895Z,46.80
2018-04-18T14:43:15.350Z,47.10
2018-04-18T14:45:42.783Z,47.40
2018-04-18T14:48:10.231Z,47.50
2018-04-18T14:50:38.437Z,47.30
2018-04-18T14:53:05.893Z,47.30
2018-04-18T14:55:33.358Z,47.00
2018-04-18T14:58:00.848Z,48.10
2018-04-18T15:00:28.342Z,46.60
2018-04-18T15:02:55.830Z,46.90
2018-04-18T15:05:23.277Z,46.30
2018-04-18T15:07:50.732Z,46.70
2018-04-18T15:10:19.200Z,45.70
2018-04-18T15:12:46.645Z,44.60
2018-04-18T15:15:14.937Z,43.20
2018-04-18T15:17:43.138Z,42.20
2018-04-18T15:20:10.600Z,42.10
2018-04-18T15:22:38.071Z,42.30
2018-04-18T15:25:05.513Z,43.60
2018-04-18T15:27:32.967Z,42.60
2018-04-18T15:30:00.420Z,43.10
2018-04-18T15:32:27.879Z,43.90
2018-04-18T15:34:55.485Z,43.30
2018-04-18T15:37:22.940Z,42.50
2018-04-18T15:39:51.484Z,43.40
2018-04-18T15:42:18.930Z,43.60
2018-04-18T15:44:46.396Z,43.60
2018-04-18T15:47:13.832Z,42.80
2018-04-18T15:49:41.274Z,43.30
2018-04-18T15:52:09.496Z,42.60
2018-04-18T15:54:36.939Z,42.60
2018-04-18T15:57:04.402Z,41.90
2018-04-18T15:59:31.845Z,41.90
2018-04-18T16:01:59.286Z,41.50
2018-04-18T16:04:26.735Z,41.90
2018-04-18T16:06:55.219Z,42.40
2018-04-18T16:09:22.670Z,41.50
2018-04-18T16:11:50.890Z,42.40
2018-04-18T16:14:18.351Z,42.40
2018-04-18T16:16:45.808Z,42.00
2018-04-18T16:19:13.253Z,42.00
2018-04-18T16:21:40.702Z,42.10
2018-04-18T16:24:08.138Z,42.40
2018-04-18T16:26:35.586Z,42.80
2018-04-18T16:29:15.604Z,42.20
2018-04-18T16:31:43.082Z,42.20
2018-04-18T16:34:13.950Z,42.20
2018-04-18T16:36:41.393Z,42.70
2018-04-18T16:39:09.604Z,43.20
2018-04-18T16:41:37.058Z,43.20
2018-04-18T16:44:04.512Z,43.10
2018-04-18T16:46:31.955Z,43.60
2018-04-18T16:48:59.417Z,43.20
2018-04-18T16:51:26.863Z,43.30
2018-04-18T16:53:54.324Z,43.60
2018-04-18T16:56:21.781Z,43.10
2018-04-18T16:58:49.227Z,43.30
2018-04-18T17:01:17.453Z,43.30
2018-04-18T17:03:44.895Z,43.30
2018-04-18T17:06:12.340Z,43.40
2018-04-18T17:08:39.778Z,43.70
2018-04-18T17:11:07.265Z,43.20
2018-04-18T17:13:34.747Z,43.70
2018-04-18T17:16:02.208Z,43.10
2018-04-18T17:18:29.697Z,43.30
2018-04-18T17:20:57.852Z,43.70
2018-04-18T17:23:25.299Z,43.70
2018-04-18T17:25:52.755Z,43.50
2018-04-18T17:28:20.193Z,44.50
2018-04-18T17:30:47.656Z,44.30
2018-04-18T17:33:15.096Z,43.60
2018-04-18T17:35:42.538Z,43.70
2018-04-18T17:38:10.012Z,44.00
2018-04-18T17:40:37.469Z,44.30
2018-04-18T17:43:04.927Z,44.90
2018-04-18T17:45:32.379Z,44.50
2018-04-18T17:47:59.840Z,45.40
2018-04-18T17:50:27.295Z,45.20
2018-04-18T17:52:54.751Z,45.40
2018-04-18T17:55:22.226Z,45.20
2018-04-18T17:57:50.442Z,45.80
2018-04-18T18:00:17.938Z,45.70
2018-04-18T18:02:46.115Z,45.80
2018-04-18T18:05:13.568Z,45.80
2018-04-18T18:07:41.020Z,46.10
2018-04-18T18:10:12.767Z,46.90
2018-04-18T18:12:40.204Z,47.70
2018-04-18T18:15:08.405Z,54.70
2018-04-18T18:17:35.871Z,54.70
2018-04-18T18:20:03.309Z,54.50
2018-04-18T18:22:30.759Z,55.40
2018-04-18T18:24:58.971Z,55.60
2018-04-18T18:27:26.431Z,55.60
2018-04-18T18:29:54.903Z,56.60
2018-04-18T18:32:22.362Z,55.80
2018-04-18T18:34:49.825Z,56.90
2018-04-18T18:37:17.282Z,58.00
2018-04-18T18:39:45.737Z,58.30
2018-04-18T18:42:13.192Z,58.90
2018-04-18T18:44:40.641Z,59.10
2018-04-18T18:47:08.878Z,59.10
2018-04-18T18:49:36.329Z,59.10
2018-04-18T18:52:03.773Z,60.50
2018-04-18T18:54:31.219Z,60.70
2018-04-18T18:56:58.722Z,60.80
2018-04-18T18:59:26.117Z,58.80
2018-04-18T19:01:53.597Z,59.30
2018-04-18T19:04:21.052Z,60.30
2018-04-18T19:06:48.525Z,59.40
2018-04-18T19:09:16.032Z,61.00
2018-04-18T19:11:44.357Z,62.80
2018-04-18T19:14:11.808Z,62.70
2018-04-18T19:16:40.279Z,63.30
2018-04-18T19:19:07.819Z,64.20
2018-04-18T19:21:35.276Z,65.40
2018-04-18T19:24:03.500Z,68.30
2018-04-18T19:26:31.707Z,69.40
2018-04-18T19:28:59.939Z,70.80
2018-04-18T19:31:27.373Z,70.60
2018-04-18T19:33:54.819Z,72.30
2018-04-18T19:36:22.301Z,72.30
2018-04-18T19:38:49.768Z,72.80
2018-04-18T19:41:17.241Z,74.10
2018-04-18T19:43:44.685Z,76.30
2018-04-18T19:46:12.294Z,77.80
2018-04-18T19:48:39.751Z,79.50
2018-04-18T19:51:07.969Z,82.70
2018-04-18T19:53:35.481Z,82.70
2018-04-18T19:56:09.694Z,85.50
2018-04-18T19:58:37.912Z,86.90
2018-04-18T20:01:05.382Z,86.80
2018-04-18T20:03:32.813Z,87.80
2018-04-18T20:06:00.250Z,88.70
2018-04-18T20:08:28.471Z,90.90
2018-04-18T20:10:56.001Z,90.90
2018-04-18T20:13:23.440Z,91.20
2018-04-18T20:15:51.663Z,92.10
2018-04-18T20:18:19.103Z,92.10
2018-04-18T20:20:50.032Z,92.80
2018-04-18T20:23:17.483Z,93.10
2018-04-18T20:25:44.930Z,94.00
2018-04-18T20:28:13.168Z,94.80
2018-04-18T20:30:40.589Z,94.80
2018-04-18T20:33:08.048Z,95.00
2018-04-18T20:35:35.501Z,95.50
2018-04-18T20:38:02.999Z,95.60
2018-04-18T20:40:30.402Z,95.90
2018-04-18T20:42:57.839Z,96.40
2018-04-18T20:45:26.082Z,97.30
2018-04-18T20:47:53.520Z,97.20
2018-04-18T20:50:21.968Z,98.20
2018-04-18T20:52:49.447Z,98.80
2018-04-18T20:55:16.889Z,99.30
2018-04-18T20:57:44.342Z,99.90
2018-04-18T21:00:11.797Z,99.90
2018-04-18T21:02:39.317Z,99.90
2018-04-18T21:05:06.779Z,99.90
2018-04-18T21:07:34.217Z,99.90
2018-04-18T21:10:01.652Z,99.90
2018-04-18T21:12:29.105Z,99.90
2018-04-18T21:15:01.163Z,99.90
2018-04-18T21:17:28.604Z,99.90
2018-04-18T21:19:56.825Z,99.90
2018-04-18T21:22:24.279Z,99.90
2018-04-18T21:24:51.729Z,99.90
2018-04-18T21:27:19.175Z,99.90
2018-04-18T21:29:46.632Z,99.90
2018-04-18T21:32:14.099Z,99.90
2018-04-18T21:34:41.555Z,99.90
2018-04-18T21:37:09.001Z,99.90
2018-04-18T21:39:36.471Z,99.90
2018-04-18T21:42:03.898Z,99.90
2018-04-18T21:44:31.342Z,99.90
2018-04-18T21:46:59.559Z,99.90
2018-04-18T21:49:27.032Z,99.90
2018-04-18T21:51:54.477Z,99.90
2018-04-18T21:54:21.937Z,99.90
2018-04-18T21:56:49.383Z,99.90
2018-04-18T21:59:16.817Z,99.90
2018-04-18T22:01:44.261Z,99.90
2018-04-18T22:04:13.504Z,99.90
2018-04-18T22:06:40.968Z,99.90
2018-04-18T22:09:08.414Z,99.90
2018-04-18T22:11:35.868Z,99.90
2018-04-18T22:14:03.320Z,99.90
2018-04-18T22:16:31.763Z,99.90
2018-04-18T22:18:59.978Z,99.90
2018-04-18T22:21:27.435Z,99.90
2018-04-18T22:23:54.899Z,99.90
2018-04-18T22:26:22.346Z,99.90
2018-04-18T22:28:49.797Z,99.90
2018-04-18T22:31:17.265Z,99.90
2018-04-18T22:33:44.717Z,99.90
2018-04-18T22:36:12.162Z,99.90
2018-04-18T22:38:39.624Z,99.90
2018-04-18T22:41:07.082Z,99.90
2018-04-18T22:43:34.517Z,99.90
2018-04-18T22:46:01.963Z,99.90
2018-04-18T22:48:30.176Z,99.90
2018-04-18T22:50:57.637Z,99.90
2018-04-18T22:53:25.097Z,99.90
2018-04-18T22:55:52.549Z,99.90
2018-04-18T22:58:21.008Z,99.90
2018-04-18T23:00:48.459Z,99.90
2018-04-18T23:03:16.674Z,99.90
2018-04-18T23:05:44.194Z,99.90
2018-04-18T23:08:12.402Z,99.90
2018-04-18T23:10:39.854Z,99.90
2018-04-18T23:13:07.294Z,99.90
2018-04-18T23:15:34.747Z,99.90
2018-04-18T23:18:02.194Z,99.90
2018-04-18T23:20:30.421Z,99.90
2018-04-18T23:22:57.851Z,99.90
2018-04-18T23:25:25.297Z,99.90
2018-04-18T23:27:52.752Z,99.90
2018-04-18T23:30:20.208Z,99.90
2018-04-18T23:32:47.651Z,99.90
2018-04-18T23:35:15.118Z,99.90
2018-04-18T23:37:42.567Z,99.90
2018-04-18T23:40:10.853Z,99.90
2018-04-18T23:42:38.359Z,99.90
2018-04-18T23:45:06.519Z,99.90
2018-04-18T23:47:33.966Z,99.90
2018-04-18T23:50:01.430Z,99.90
2018-04-18T23:52:28.882Z,99.90
2018-04-18T23:55:00.108Z,99.90
2018-04-18T23:57:28.311Z,99.90
2018-04-18T23:59:55.767Z,99.90
